createdAt,value
2023-02-12T00:01:17.627Z,7.90
2023-02-12T00:03:44.314Z,8.00
2023-02-12T00:06:13.565Z,7.90
2023-02-12T00:08:42.552Z,7.90
2023-02-12T00:11:15.548Z,7.90
2023-02-12T00:13:42.442Z,7.90
2023-02-12T00:16:11.822Z,8.00
2023-02-12T00:18:38.552Z,7.90
2023-02-12T00:21:05.781Z,8.00
2023-02-12T00:23:32.873Z,8.00
2023-02-12T00:25:59.488Z,8.00
2023-02-12T00:28:26.877Z,8.00
2023-02-12T00:30:53.599Z,8.10
2023-02-12T00:33:20.234Z,8.10
2023-02-12T00:35:58.012Z,8.10
2023-02-12T00:38:24.669Z,8.00
2023-02-12T00:40:51.316Z,8.00
2023-02-12T00:43:17.987Z,8.00
2023-02-12T00:45:45.798Z,8.00
2023-02-12T00:48:13.055Z,8.10
2023-02-12T00:50:41.119Z,8.10
2023-02-12T00:53:08.160Z,8.10
2023-02-12T00:55:35.069Z,8.10
2023-02-12T00:58:01.675Z,8.10
2023-02-12T01:00:28.402Z,8.10
2023-02-12T01:02:55.136Z,8.00
2023-02-12T01:05:21.872Z,8.00
2023-02-12T01:07:53.372Z,8.00
2023-02-12T01:10:20.748Z,8.00
2023-02-12T01:12:48.078Z,8.00
2023-02-12T01:15:15.851Z,8.00
2023-02-12T01:17:42.817Z,8.00
2023-02-12T01:20:13.179Z,8.00
2023-02-12T01:22:40.101Z,8.00
2023-02-12T01:25:07.394Z,8.00
2023-02-12T01:27:34.058Z,8.00
2023-02-12T01:30:00.684Z,8.00
2023-02-12T01:32:27.342Z,8.00
2023-02-12T01:34:54.126Z,8.10
2023-02-12T01:37:20.723Z,8.10
2023-02-12T01:39:47.330Z,8.00
2023-02-12T01:42:15.285Z,8.00
2023-02-12T01:45:05.695Z,8.00
2023-02-12T01:47:32.329Z,8.00
2023-02-12T01:49:58.970Z,8.00
2023-02-12T01:52:32.539Z,8.00
2023-02-12T01:55:02.471Z,8.00
2023-02-12T01:57:32.000Z,8.10
2023-02-12T02:00:01.614Z,8.00
2023-02-12T02:02:28.805Z,8.10
2023-02-12T02:05:00.344Z,8.10
2023-02-12T02:07:27.225Z,8.10
2023-02-12T02:09:54.412Z,8.10
2023-02-12T02:12:39.921Z,8.10
2023-02-12T02:15:07.165Z,8.10
2023-02-12T02:17:57.963Z,8.10
2023-02-12T02:20:49.477Z,8.10
2023-02-12T02:23:25.137Z,8.10
2023-02-12T02:26:29.629Z,8.00
2023-02-12T02:29:34.614Z,8.00
2023-02-12T02:32:01.226Z,8.00
2023-02-12T02:34:44.732Z,8.00
2023-02-12T02:37:27.964Z,8.00
2023-02-12T02:39:57.328Z,8.00
2023-02-12T02:42:35.186Z,8.00
2023-02-12T02:45:27.149Z,8.00
2023-02-12T02:48:14.082Z,8.00
2023-02-12T02:50:46.060Z,7.90
2023-02-12T02:53:23.218Z,8.00
2023-02-12T02:55:55.052Z,8.00
2023-02-12T02:58:30.865Z,8.00
2023-02-12T03:01:19.026Z,8.00
2023-02-12T03:03:58.009Z,8.00
2023-02-12T03:06:50.632Z,8.00
2023-02-12T03:09:28.926Z,8.00
2023-02-12T03:11:59.798Z,8.00
2023-02-12T03:14:34.592Z,8.00
2023-02-12T03:17:13.950Z,8.00
2023-02-12T03:19:47.749Z,8.00
2023-02-12T03:22:26.925Z,8.00
2023-02-12T03:25:09.686Z,7.90
2023-02-12T03:28:06.378Z,7.90
2023-02-12T03:30:59.208Z,7.90
2023-02-12T03:33:55.138Z,7.90
2023-02-12T03:36:27.705Z,7.90
2023-02-12T03:38:56.513Z,7.90
2023-02-12T03:41:35.627Z,7.90
2023-02-12T03:44:14.216Z,8.00
2023-02-12T03:46:43.709Z,7.90
2023-02-12T03:49:23.579Z,8.00
2023-02-12T03:51:50.903Z,8.00
2023-02-12T03:54:21.042Z,8.00
2023-02-12T03:56:53.116Z,7.80
2023-02-12T03:59:21.943Z,7.80
2023-02-12T04:01:51.644Z,7.80
2023-02-12T04:04:18.655Z,7.90
2023-02-12T04:06:48.426Z,7.80
2023-02-12T04:09:15.978Z,7.90
2023-02-12T04:11:58.252Z,7.90
2023-02-12T04:14:55.406Z,7.90
2023-02-12T04:17:52.799Z,7.90
2023-02-12T04:20:28.505Z,7.90
2023-02-12T04:23:19.955Z,7.90
2023-02-12T04:26:11.304Z,7.90
2023-02-12T04:28:41.006Z,7.80
2023-02-12T04:31:14.433Z,7.80
2023-02-12T04:33:51.060Z,7.80
2023-02-12T04:36:23.138Z,7.80
2023-02-12T04:39:12.115Z,7.80
2023-02-12T04:41:39.587Z,7.80
2023-02-12T04:44:28.982Z,7.80
2023-02-12T04:46:55.563Z,7.90
2023-02-12T04:49:22.789Z,7.80
2023-02-12T04:51:49.508Z,7.70
2023-02-12T04:54:17.970Z,7.80
2023-02-12T04:56:45.666Z,7.80
2023-02-12T04:59:12.845Z,7.80
2023-02-12T05:01:40.781Z,7.80
2023-02-12T05:04:08.753Z,7.80
2023-02-12T05:06:36.832Z,7.90
2023-02-12T05:09:04.643Z,7.90
2023-02-12T05:11:31.269Z,7.90
2023-02-12T05:13:58.052Z,7.90
2023-02-12T05:16:24.741Z,7.90
2023-02-12T05:18:51.477Z,7.80
2023-02-12T05:21:18.095Z,7.80
2023-02-12T05:23:44.833Z,7.90
2023-02-12T05:26:14.977Z,7.90
2023-02-12T05:28:41.946Z,7.90
2023-02-12T05:31:12.838Z,7.80
2023-02-12T05:33:41.569Z,7.80
2023-02-12T05:36:11.718Z,7.80
2023-02-12T05:38:38.383Z,7.80
2023-02-12T05:41:11.230Z,7.80
2023-02-12T05:43:37.925Z,7.80
2023-02-12T05:46:06.702Z,7.70
2023-02-12T05:48:34.082Z,7.70
2023-02-12T05:51:09.292Z,7.60
2023-02-12T05:53:36.563Z,7.70
2023-02-12T05:56:17.244Z,7.70
2023-02-12T05:58:46.767Z,7.70
2023-02-12T06:01:16.942Z,7.70
2023-02-12T06:03:43.928Z,7.80
2023-02-12T06:06:11.119Z,7.70
2023-02-12T06:08:38.623Z,7.70
2023-02-12T06:11:07.765Z,7.70
2023-02-12T06:13:35.058Z,7.80
2023-02-12T06:16:02.268Z,7.70
2023-02-12T06:18:29.148Z,7.80
2023-02-12T06:20:55.882Z,7.70
2023-02-12T06:23:24.131Z,7.80
2023-02-12T06:25:56.149Z,7.80
2023-02-12T06:28:23.111Z,7.80
2023-02-12T06:30:49.716Z,7.90
2023-02-12T06:33:16.540Z,7.90
2023-02-12T06:35:43.161Z,7.90
2023-02-12T06:38:09.862Z,7.90
2023-02-12T06:40:36.521Z,7.90
2023-02-12T06:43:03.137Z,7.90
2023-02-12T06:45:29.742Z,7.90
2023-02-12T06:47:56.366Z,7.90
2023-02-12T06:50:22.969Z,7.90
2023-02-12T06:52:49.630Z,7.90
2023-02-12T06:55:16.550Z,7.90
2023-02-12T06:57:43.320Z,7.80
2023-02-12T07:00:11.016Z,7.80
2023-02-12T07:02:39.089Z,7.90
2023-02-12T07:05:06.102Z,7.90
2023-02-12T07:07:32.936Z,7.80
2023-02-12T07:09:59.603Z,7.80
2023-02-12T07:12:26.156Z,7.80
2023-02-12T07:14:52.756Z,7.90
2023-02-12T07:17:19.359Z,7.80
2023-02-12T07:19:45.925Z,7.80
2023-02-12T07:22:12.529Z,7.80
2023-02-12T07:24:39.212Z,7.80
2023-02-12T07:27:05.810Z,7.80
2023-02-12T07:29:32.456Z,7.80
2023-02-12T07:31:59.200Z,7.90
2023-02-12T07:34:25.869Z,7.90
2023-02-12T07:36:52.449Z,7.80
2023-02-12T07:39:19.016Z,7.90
2023-02-12T07:41:45.587Z,7.90
2023-02-12T07:44:13.113Z,7.90
2023-02-12T07:46:44.959Z,7.90
2023-02-12T07:49:15.125Z,7.90
2023-02-12T07:51:42.138Z,7.90
2023-02-12T07:54:10.321Z,8.00
2023-02-12T07:56:38.929Z,8.00
2023-02-12T07:59:10.368Z,8.10
2023-02-12T08:01:43.595Z,8.00
2023-02-12T08:04:13.346Z,8.10
2023-02-12T08:06:43.348Z,8.10
2023-02-12T08:09:12.136Z,8.10
2023-02-12T08:11:39.885Z,8.10
2023-02-12T08:14:06.925Z,8.10
2023-02-12T08:16:38.428Z,8.20
2023-02-12T08:19:16.880Z,8.20
2023-02-12T08:21:47.173Z,8.20
2023-02-12T08:24:13.815Z,8.10
2023-02-12T08:26:40.467Z,8.20
2023-02-12T08:29:13.218Z,8.30
2023-02-12T08:31:42.579Z,8.20
2023-02-12T08:34:32.480Z,8.30
2023-02-12T08:37:00.271Z,8.30
2023-02-12T08:39:28.546Z,8.30
2023-02-12T08:41:59.503Z,8.30
2023-02-12T08:44:26.739Z,8.40
2023-02-12T08:46:55.499Z,8.40
2023-02-12T08:49:25.161Z,8.40
2023-02-12T08:51:53.955Z,8.50
2023-02-12T08:54:28.763Z,8.40
2023-02-12T08:57:00.998Z,8.40
2023-02-12T08:59:28.071Z,8.40
2023-02-12T09:01:55.329Z,8.50
2023-02-12T09:04:27.773Z,8.50
2023-02-12T09:06:55.535Z,8.50
2023-02-12T09:09:22.298Z,8.50
2023-02-12T09:11:49.413Z,8.50
2023-02-12T09:14:17.463Z,8.50
2023-02-12T09:16:44.225Z,8.60
2023-02-12T09:19:13.450Z,8.60
2023-02-12T09:21:40.321Z,8.60
2023-02-12T09:24:07.383Z,8.60
2023-02-12T09:26:34.097Z,8.70
2023-02-12T09:29:02.835Z,8.70
2023-02-12T09:31:31.136Z,8.80
2023-02-12T09:34:03.516Z,8.80
2023-02-12T09:36:30.764Z,8.80
2023-02-12T09:38:59.195Z,8.80
2023-02-12T09:41:46.151Z,8.80
2023-02-12T09:44:58.232Z,8.80
2023-02-12T09:47:40.825Z,8.70
2023-02-12T09:50:33.628Z,8.80
2023-02-12T09:53:01.165Z,8.90
2023-02-12T09:55:31.066Z,8.90
2023-02-12T09:57:58.063Z,8.90
2023-02-12T10:00:31.074Z,8.90
2023-02-12T10:03:05.010Z,8.90
2023-02-12T10:05:37.717Z,8.90
2023-02-12T10:08:30.274Z,8.90
2023-02-12T10:11:21.910Z,8.90
2023-02-12T10:14:03.768Z,9.00
2023-02-12T10:16:55.306Z,8.90
2023-02-12T10:19:49.034Z,8.90
2023-02-12T10:26:12.635Z,9.00
2023-02-12T10:28:42.254Z,9.10
2023-02-12T10:31:30.519Z,9.10
2023-02-12T10:33:57.724Z,9.20
2023-02-12T10:36:43.817Z,9.10
2023-02-12T10:39:10.368Z,9.20
2023-02-12T10:41:42.918Z,9.20
2023-02-12T10:44:12.410Z,9.20
2023-02-12T10:46:39.104Z,9.10
2023-02-12T10:49:08.574Z,9.10
2023-02-12T10:51:50.501Z,9.20
2023-02-12T10:54:44.250Z,9.30
2023-02-12T10:57:13.120Z,9.20
2023-02-12T10:59:41.047Z,9.20
2023-02-12T11:02:21.993Z,9.30
2023-02-12T11:04:49.254Z,9.20
2023-02-12T11:07:16.378Z,9.20
2023-02-12T11:09:45.860Z,9.20
2023-02-12T11:12:30.169Z,9.30
2023-02-12T11:15:03.704Z,9.20
2023-02-12T11:17:39.848Z,9.20
2023-02-12T11:20:18.698Z,9.30
2023-02-12T11:22:56.145Z,9.30
2023-02-12T11:25:24.898Z,9.40
2023-02-12T11:28:00.500Z,9.50
2023-02-12T11:30:27.706Z,9.50
2023-02-12T11:32:54.317Z,9.50
2023-02-12T11:35:25.810Z,9.50
2023-02-12T11:37:55.933Z,9.50
2023-02-12T11:40:27.458Z,9.50
2023-02-12T11:43:06.377Z,9.50
2023-02-12T11:45:44.727Z,9.50
2023-02-12T11:48:23.810Z,9.50
2023-02-12T11:50:54.159Z,9.50
2023-02-12T11:53:28.150Z,9.60
2023-02-12T11:56:04.944Z,9.60
2023-02-12T11:58:31.920Z,9.60
2023-02-12T12:01:04.082Z,9.60
2023-02-12T12:03:40.389Z,9.60
2023-02-12T12:06:31.179Z,9.70
2023-02-12T12:09:13.278Z,9.70
2023-02-12T12:11:58.403Z,9.70
2023-02-12T12:14:55.678Z,9.80
2023-02-12T12:17:46.858Z,9.80
2023-02-12T12:20:19.491Z,9.80
2023-02-12T12:23:05.471Z,9.90
2023-02-12T12:25:44.320Z,9.90
2023-02-12T12:28:33.552Z,10.00
2023-02-12T12:31:11.404Z,10.00
2023-02-12T12:33:46.828Z,10.10
2023-02-12T12:36:13.408Z,10.10
2023-02-12T12:39:11.107Z,10.20
2023-02-12T12:42:07.935Z,10.10
2023-02-12T12:45:14.065Z,10.20
2023-02-12T12:48:01.684Z,10.20
2023-02-12T12:50:49.469Z,10.10
2023-02-12T12:53:37.875Z,10.10
2023-02-12T12:56:32.327Z,10.10
2023-02-12T12:59:19.246Z,10.20
2023-02-12T13:01:54.618Z,10.30
2023-02-12T13:04:31.678Z,10.40
2023-02-12T13:07:13.791Z,10.40
2023-02-12T13:10:03.126Z,10.40
2023-02-12T13:12:51.531Z,10.50
2023-02-12T13:15:39.327Z,10.50
2023-02-12T13:18:31.724Z,10.60
2023-02-12T13:21:09.998Z,10.50
2023-02-12T13:23:55.894Z,10.60
2023-02-12T13:26:52.745Z,10.60
2023-02-12T13:29:34.191Z,10.50
2023-02-12T13:32:12.039Z,10.50
2023-02-12T13:34:40.786Z,10.50
2023-02-12T13:37:15.178Z,10.50
2023-02-12T13:39:45.884Z,10.50
2023-02-12T13:42:37.412Z,10.50
2023-02-12T13:45:18.030Z,10.50
2023-02-12T13:47:50.339Z,10.40
2023-02-12T13:50:38.084Z,10.50
2023-02-12T13:53:25.317Z,10.40
2023-02-12T13:56:11.082Z,10.50
2023-02-12T13:58:37.655Z,10.50
2023-02-12T14:01:08.555Z,10.50
2023-02-12T14:03:36.742Z,10.50
2023-02-12T14:06:19.064Z,10.50
2023-02-12T14:08:50.521Z,10.50
2023-02-12T14:11:24.672Z,10.30
2023-02-12T14:13:53.993Z,10.40
2023-02-12T14:16:38.647Z,10.40
2023-02-12T14:19:37.697Z,10.40
2023-02-12T14:22:11.915Z,10.50
2023-02-12T14:24:38.540Z,10.30
2023-02-12T14:27:23.635Z,10.40
2023-02-12T14:30:05.361Z,10.40
2023-02-12T14:32:50.596Z,10.30
2023-02-12T14:35:26.456Z,10.30
2023-02-12T14:38:04.382Z,10.40
2023-02-12T14:40:46.733Z,10.40
2023-02-12T14:43:33.611Z,10.40
2023-02-12T14:46:22.169Z,10.30
2023-02-12T14:48:53.800Z,10.20
2023-02-12T14:51:42.966Z,10.20
2023-02-12T14:54:35.431Z,10.30
2023-02-12T14:57:08.549Z,10.30
2023-02-12T14:59:40.343Z,10.20
2023-02-12T15:02:13.927Z,10.20
2023-02-12T15:04:45.023Z,10.10
2023-02-12T15:07:20.380Z,10.10
2023-02-12T15:10:10.087Z,10.00
2023-02-12T15:12:46.403Z,10.10
2023-02-12T15:15:25.205Z,10.20
2023-02-12T15:17:59.235Z,10.20
2023-02-12T15:20:56.031Z,10.10
2023-02-12T15:23:36.112Z,10.20
2023-02-12T15:26:06.052Z,10.20
2023-02-12T15:28:36.247Z,10.10
2023-02-12T15:31:06.053Z,10.20
2023-02-12T15:33:35.873Z,10.20
2023-02-12T15:36:03.896Z,10.20
2023-02-12T15:38:34.233Z,10.10
2023-02-12T15:41:02.494Z,10.10
2023-02-12T15:43:34.853Z,10.10
2023-02-12T15:46:03.770Z,10.10
2023-02-12T15:48:33.721Z,10.00
2023-02-12T15:51:24.932Z,10.00
2023-02-12T15:53:52.558Z,10.00
2023-02-12T15:56:22.806Z,10.00
2023-02-12T15:58:52.839Z,10.00
2023-02-12T16:01:24.731Z,10.00
2023-02-12T16:04:03.147Z,10.00
2023-02-12T16:06:34.320Z,9.90
2023-02-12T16:09:07.063Z,9.90
2023-02-12T16:11:35.394Z,9.90
2023-02-12T16:14:05.636Z,10.00
2023-02-12T16:16:45.103Z,9.90
2023-02-12T16:19:33.473Z,9.90
2023-02-12T16:22:15.940Z,9.90
2023-02-12T16:24:48.851Z,9.80
2023-02-12T16:27:15.389Z,9.80
2023-02-12T16:29:48.237Z,9.80
2023-02-12T16:32:34.854Z,9.80
2023-02-12T16:35:27.331Z,9.80
2023-02-12T16:38:24.278Z,9.90
2023-02-12T16:41:26.841Z,9.90
2023-02-12T16:44:02.472Z,9.80
2023-02-12T16:46:31.005Z,9.80
2023-02-12T16:49:00.503Z,9.70
2023-02-12T16:51:28.429Z,9.80
2023-02-12T16:53:57.545Z,9.70
2023-02-12T16:56:27.886Z,9.70
2023-02-12T16:58:57.578Z,9.60
2023-02-12T17:01:33.873Z,9.70
2023-02-12T17:04:04.067Z,9.70
2023-02-12T17:06:32.573Z,9.70
2023-02-12T17:08:59.760Z,9.70
2023-02-12T17:11:28.946Z,9.60
2023-02-12T17:13:56.588Z,9.60
2023-02-12T17:16:32.141Z,9.60
2023-02-12T17:19:00.070Z,9.60
2023-02-12T17:21:41.913Z,9.60
2023-02-12T17:24:21.879Z,9.50
2023-02-12T17:26:50.548Z,9.50
2023-02-12T17:29:18.360Z,9.50
2023-02-12T17:31:45.081Z,9.50
2023-02-12T17:34:12.037Z,9.50
2023-02-12T17:36:38.756Z,9.50
2023-02-12T17:39:07.774Z,9.50
2023-02-12T17:41:34.921Z,9.60
2023-02-12T17:44:01.741Z,9.60
2023-02-12T17:46:29.725Z,9.60
2023-02-12T17:48:57.447Z,9.60
2023-02-12T17:51:25.039Z,9.60
2023-02-12T17:53:51.985Z,9.60
2023-02-12T17:56:21.182Z,9.60
2023-02-12T17:58:48.970Z,9.50
2023-02-12T18:01:19.660Z,9.60
2023-02-12T18:03:46.308Z,9.50
2023-02-12T18:06:16.188Z,9.50
2023-02-12T18:08:43.334Z,9.50
2023-02-12T18:11:11.380Z,9.50
2023-02-12T18:13:38.395Z,9.40
2023-02-12T18:16:10.412Z,9.50
2023-02-12T18:18:40.007Z,9.40
2023-02-12T18:21:11.515Z,9.40
2023-02-12T18:23:38.685Z,9.30
2023-02-12T18:26:07.983Z,9.30
2023-02-12T18:28:35.452Z,9.30
2023-02-12T18:31:02.753Z,9.20
2023-02-12T18:33:29.417Z,9.20
2023-02-12T18:36:03.407Z,9.10
2023-02-12T18:38:30.716Z,9.20
2023-02-12T18:40:59.613Z,9.10
2023-02-12T18:43:26.942Z,9.20
2023-02-12T18:45:55.207Z,9.10
2023-02-12T18:48:22.174Z,9.10
2023-02-12T18:50:51.531Z,9.10
2023-02-12T18:53:18.263Z,9.10
2023-02-12T18:55:44.900Z,9.10
2023-02-12T18:58:11.510Z,9.10
2023-02-12T19:00:38.115Z,9.10
2023-02-12T19:03:04.849Z,9.20
2023-02-12T19:05:31.563Z,9.10
2023-02-12T19:07:58.267Z,9.20
2023-02-12T19:10:24.925Z,9.20
2023-02-12T19:12:51.607Z,9.20
2023-02-12T19:15:18.543Z,9.10
2023-02-12T19:17:45.216Z,9.10
2023-02-12T19:20:13.404Z,9.10
2023-02-12T19:22:41.038Z,9.10
2023-02-12T19:25:07.953Z,9.10
2023-02-12T19:27:34.680Z,9.10
2023-02-12T19:30:02.068Z,9.00
2023-02-12T19:32:28.672Z,9.00
2023-02-12T19:34:55.231Z,9.00
2023-02-12T19:37:22.085Z,9.00
2023-02-12T19:39:48.685Z,8.90
2023-02-12T19:42:17.116Z,8.80
2023-02-12T19:44:44.443Z,8.80
2023-02-12T19:47:11.073Z,8.80
2023-02-12T19:49:38.086Z,8.70
2023-02-12T19:52:05.162Z,8.60
2023-02-12T19:54:31.791Z,8.50
2023-02-12T19:56:58.410Z,8.50
2023-02-12T19:59:26.754Z,8.40
2023-02-12T20:01:53.943Z,8.40
2023-02-12T20:04:22.161Z,8.50
2023-02-12T20:06:50.820Z,8.40
2023-02-12T20:09:19.367Z,8.50
2023-02-12T20:11:46.299Z,8.40
2023-02-12T20:14:14.390Z,8.50
2023-02-12T20:16:43.683Z,8.40
2023-02-12T20:19:14.922Z,8.40
2023-02-12T20:21:42.798Z,8.40
2023-02-12T20:24:09.479Z,8.30
2023-02-12T20:26:36.776Z,8.20
2023-02-12T20:29:05.231Z,8.20
2023-02-12T20:31:34.794Z,8.30
2023-02-12T20:34:07.712Z,8.30
2023-02-12T20:36:36.754Z,8.30
2023-02-12T20:39:05.198Z,8.20
2023-02-12T20:41:31.859Z,8.30
2023-02-12T20:44:00.525Z,8.30
2023-02-12T20:46:27.667Z,8.30
2023-02-12T20:48:54.969Z,8.30
2023-02-12T20:51:24.882Z,8.30
2023-02-12T20:53:52.362Z,8.40
2023-02-12T20:56:25.210Z,8.30
2023-02-12T20:58:52.544Z,8.40
2023-02-12T21:01:25.626Z,8.40
2023-02-12T21:03:54.646Z,8.40
2023-02-12T21:06:22.783Z,8.40
2023-02-12T21:08:51.068Z,8.40
2023-02-12T21:11:22.996Z,8.30
2023-02-12T21:13:58.774Z,8.30
2023-02-12T21:16:35.098Z,8.30
2023-02-12T21:19:01.823Z,8.20
2023-02-12T21:21:30.703Z,8.20
2023-02-12T21:23:58.561Z,8.20
2023-02-12T21:26:27.227Z,8.30
2023-02-12T21:28:56.275Z,8.30
2023-02-12T21:31:27.385Z,8.40
2023-02-12T21:33:55.421Z,8.40
2023-02-12T21:36:24.737Z,8.30
2023-02-12T21:38:52.458Z,8.30
2023-02-12T21:41:22.883Z,8.30
2023-02-12T21:43:55.974Z,8.30
2023-02-12T21:46:23.618Z,8.40
2023-02-12T21:48:51.117Z,8.40
2023-02-12T21:51:26.111Z,8.30
2023-02-12T21:53:55.691Z,8.30
2023-02-12T21:56:23.297Z,8.40
2023-02-12T21:58:51.778Z,8.40
2023-02-12T22:01:22.798Z,8.30
2023-02-12T22:03:50.073Z,8.20
2023-02-12T22:06:19.043Z,8.30
2023-02-12T22:08:46.579Z,8.30
2023-02-12T22:11:13.945Z,8.30
2023-02-12T22:13:40.960Z,8.30
2023-02-12T22:16:22.886Z,8.20
2023-02-12T22:18:52.805Z,8.30
2023-02-12T22:21:21.037Z,8.30
2023-02-12T22:23:47.983Z,8.40
2023-02-12T22:26:26.526Z,8.30
2023-02-12T22:28:56.512Z,8.30
2023-02-12T22:31:29.871Z,8.20
2023-02-12T22:33:58.888Z,8.20
2023-02-12T22:36:26.383Z,8.30
2023-02-12T22:38:54.945Z,8.20
2023-02-12T22:41:21.900Z,8.00
2023-02-12T22:43:49.304Z,8.10
2023-02-12T22:46:16.756Z,8.10
2023-02-12T22:48:44.143Z,8.10
2023-02-12T22:51:22.228Z,8.10
2023-02-12T22:53:49.013Z,8.10
2023-02-12T22:56:16.278Z,8.10
2023-02-12T22:58:43.360Z,8.10
2023-02-12T23:01:13.018Z,8.10
2023-02-12T23:03:40.123Z,8.10
2023-02-12T23:06:10.785Z,8.10
2023-02-12T23:08:37.437Z,8.10
2023-02-12T23:11:06.953Z,8.00
2023-02-12T23:13:34.142Z,8.00
2023-02-12T23:16:01.044Z,8.00
2023-02-12T23:18:27.748Z,8.00
2023-02-12T23:20:54.392Z,8.00
2023-02-12T23:23:21.769Z,8.00
2023-02-12T23:25:49.027Z,8.00
2023-02-12T23:28:16.098Z,8.00
2023-02-12T23:30:43.231Z,8.00
2023-02-12T23:33:09.996Z,8.00
2023-02-12T23:35:36.677Z,8.10
2023-02-12T23:38:04.319Z,8.20
2023-02-12T23:40:32.470Z,8.20
2023-02-12T23:42:59.764Z,8.30
2023-02-12T23:45:27.023Z,8.50
2023-02-12T23:47:53.971Z,8.50
2023-02-12T23:50:22.400Z,8.50
2023-02-12T23:52:49.091Z,8.60
2023-02-12T23:55:16.581Z,8.70
2023-02-12T23:57:43.160Z,8.70
